Free Trial

Franklin Resources (BEN) Institutional Ownership

$23.07
-0.26 (-1.11%)
(As of 05/28/2024 ET)

Institutional Ownership Changes (13F Filings) for Franklin Resources (NYSE:BEN)

Current
Institutional Ownership
Percentage
47.56%
Number of
Institutional Buyers
(last 12 months)
289
Total
Institutional Inflows
(last 12 months)
$1.68B
Number of
Institutional Sellers
(last 12 months)
213
Total
Institutional Outflows
(last 12 months)
$530.35M
Get BEN Insider Trade Alerts

Want to know when executives and insiders are buying or selling Franklin Resources stock? Sign up for InsiderTrades.com's daily newsletter to get the latest insider transactions delivered to your inbox daily.

Skip Chart & View Institutional Buying and Selling Data

BEN Institutional Buying and Selling by Quarter

Franklin Resources Major Shareholders & Ownership History

Reporting DateMajor Shareholder NameShares HeldMarket Value% of PortfolioQuarterly Change in SharesOwnership in CompanyDetails
5/28/2024Teachers Retirement System of The State of Kentucky23,673$665K0.0%-2.9%0.004%
5/24/2024 Cetera Advisors LLC253,299$7.12M0.1%+1,139.3%0.048%
5/24/2024 Cetera Investment Advisers282,965$7.95M0.0%+13.2%0.054%
5/24/2024 PGGM Investments40,117$1.13M0.0%+158.3%0.008%
5/21/2024 Swedbank AB34,817$979K0.0%N/A0.007%
5/17/2024 Plato Investment Management Ltd25,267$710K0.1%N/A0.005%
5/17/2024 LBP AM SA281,195$7.90M0.3%+37.6%0.053%
5/17/2024 Comerica Bank165,023$4.64M0.0%-0.3%0.031%
5/17/2024 Tidal Investments LLC335,377$9.43M0.2%-35.9%0.064%
5/16/2024 California State Teachers Retirement System471,650$13.26M0.0%+0.1%0.090%
5/16/2024 Interval Partners LP108,411$3.05M0.1%-56.9%0.021%
5/16/2024 Bayesian Capital Management LP12,800$360K0.0%-59.8%0.002%
5/16/2024 Kinloch Capital LLC128,798$3.62M1.9%+18.2%0.024%
5/16/2024 Zurich Insurance Group Ltd FI54,700$1.54M0.0%N/A0.010%
5/15/2024 Ascent Group LLC42,613$1.20M0.1%+9.4%0.008%
5/15/2024 Public Employees Retirement System of Ohio124,062$3.49M0.0%-10.0%0.024%
5/15/2024 Public Employees Retirement Association of Colorado31,392$882K0.0%-6.1%0.006%
5/15/2024 Price T Rowe Associates Inc. MD412,881$11.61M0.0%+9.4%0.078%
5/15/2024 Quadrature Capital Ltd22,242$625K0.0%-32.0%0.004%
5/14/2024 Capital Research Global Investors24,027,419$675.41M0.2%-9.8%4.567%
5/14/2024 Toronto Dominion Bank89,512$2.52M0.0%-43.5%0.017%
5/14/2024 Cadence Bank234,491$6.59M0.5%+0.3%0.045%
5/14/2024 Stamos Capital Partners L.P.61,850$1.74M0.4%+5.0%0.012%
5/14/2024 Freestone Capital Holdings LLC18,426$518K0.0%+6.4%0.004%
5/14/2024 CreativeOne Wealth LLC8,265$232K0.0%N/A0.002%
5/14/2024 EntryPoint Capital LLC3,056$86K0.1%+576.1%0.001%
5/14/2024 LGT Group Foundation8,260$232K0.0%N/A0.002%
5/14/2024 Power Corp of Canada31,557,117$887.07M88.7%+18,266.0%5.998%
5/14/2024 Healthcare of Ontario Pension Plan Trust Fund120,062$3.38M0.0%-82.1%0.023%
5/14/2024 CANADA LIFE ASSURANCE Co405,126$11.40M0.0%+18.6%0.077%
5/14/2024 American International Group Inc.78,486$2.21M0.0%+6.1%0.015%
5/13/2024 UniSuper Management Pty Ltd35,635$1.00M0.0%+658.5%0.007%
5/13/2024 O Shaughnessy Asset Management LLC18,119$509K0.0%+29.2%0.003%
5/11/2024 Covestor Ltd3,992$112K0.1%+58.5%0.001%
5/10/2024 Acadian Asset Management LLC7,276$204K0.0%N/A0.001%
5/10/2024 Vanguard Group Inc.35,889,477$1.01B0.0%+11.1%6.822%
5/10/2024 Intech Investment Management LLC25,964$730K0.0%-60.8%0.005%
5/10/2024 Mitsubishi UFJ Trust & Banking Corp278,268$7.76M0.0%+46.8%0.053%
5/10/2024 Mizuho Markets Americas LLC374,558$10.53M0.3%+86.8%0.071%
5/9/2024 HBK Sorce Advisory LLC9,520$268K0.0%N/A0.002%
RE: Your account status (Ad)

Your $200 MarketBeat account credit expires in less than twelve hours. Upgrade to MarketBeat All Access today and save $200 on your 2024-2025 MarketBeat premium subscription.

Claim My Discount
5/9/2024 Delta Investment Management LLC13,256$373K0.1%-3.5%0.003%
5/9/2024 Mitsubishi UFJ Asset Management Co. Ltd.618,833$17.40M0.0%+12.5%0.118%
5/9/2024 State Board of Administration of Florida Retirement System328,190$8.84M0.0%+4.7%0.062%
5/8/2024 BNP PARIBAS ASSET MANAGEMENT Holding S.A.281,390$7.91M0.0%+38.1%0.053%
5/8/2024 ProShare Advisors LLC6,418,630$180.43M0.5%-9.2%1.220%
5/8/2024 US Bancorp DE22,082$621K0.0%+2.1%0.004%
5/8/2024 Russell Investments Group Ltd.97,636$2.73M0.0%+38.6%0.019%
5/8/2024 Qsemble Capital Management LP23,801$669K0.1%N/A0.005%
5/8/2024 QRG Capital Management Inc.68,867$1.94M0.0%-66.1%0.013%
5/8/2024 Headlands Technologies LLC1,129$32K0.0%N/A0.000%
5/7/2024 Forsta AP Fonden94,900$2.67M0.0%+19.4%0.018%
5/7/2024 Oppenheimer & Co. Inc.25,907$728K0.0%+5.1%0.005%
5/7/2024 SG Americas Securities LLC199,225$5.60M0.0%+583.8%0.038%
5/7/2024 Sciencast Management LP24,028$675K0.4%N/A0.005%
5/6/2024 Quantbot Technologies LP10,324$290K0.0%-80.4%0.002%
5/6/2024 Envestnet Portfolio Solutions Inc.10,837$305K0.0%N/A0.002%
5/6/2024 Duality Advisers LP56,579$1.59M0.2%N/A0.011%
5/6/2024 Texas Permanent School Fund Corp68,766$1.93M0.0%+10.3%0.013%
5/6/2024 Biechele Royce Advisors379,423$10.67M3.5%-4.5%0.072%
5/4/2024 WBI Investments LLC63,598$1.79M0.4%+3.5%0.012%
5/4/2024 Csenge Advisory Group11,778$331K0.0%+24.4%0.002%
5/4/2024 Richardson Financial Services Inc.4,020$113K0.1%+14.9%0.001%
5/3/2024 Chevy Chase Trust Holdings LLC166,227$4.67M0.0%+5.6%0.032%
5/3/2024 BI Asset Management Fondsmaeglerselskab A S36,821$1.04M0.0%+157.1%0.007%
5/2/2024 Mutual of America Capital Management LLC39,351$1.11M0.0%+4.3%0.007%
5/2/2024 Wright Investors Service Inc.62,991$1.77M0.4%+2.7%0.012%
5/2/2024 Daiwa Securities Group Inc.29,252$822K0.0%+12.4%0.006%
5/2/2024 Nordea Investment Management AB29,152$817K0.0%-5.5%0.006%
5/2/2024 Bryn Mawr Capital Management LLC309,999$8.71M0.5%+6.8%0.059%
5/2/2024 Tokio Marine Asset Management Co. Ltd.12,067$339K0.0%+25.4%0.002%
5/2/2024 Moloney Securities Asset Management LLC10,671$300K0.0%-5.3%0.002%
5/1/2024 Capital Investment Counsel Inc16,919$476K0.1%-10.6%0.003%
5/1/2024 Capstone Investment Advisors LLC13,429$377K0.0%+18.9%0.003%
5/1/2024 Janney Montgomery Scott LLC442,050$12.43M0.0%+9.4%0.084%
5/1/2024 BNP Paribas Financial Markets522,985$14.70M0.0%+16.3%0.099%
5/1/2024 Mirae Asset Global Investments Co. Ltd.63,473$1.73M0.0%+15.9%0.012%
4/30/2024 Retirement Systems of Alabama66,245$1.86M0.0%+6.6%0.013%
4/30/2024 Norden Group LLC35,220$990K0.1%N/A0.007%
4/30/2024 Vest Financial LLC1,389,887$39.07M1.0%+17.0%0.264%
4/29/2024Commonwealth Equity Services LLC432,033$12.14M0.0%-1.1%0.082%
4/29/2024 Principal Financial Group Inc.356,668$10.03M0.0%+7.6%0.068%
4/29/2024 Benjamin F. Edwards & Company Inc.84,416$2.37M0.0%+11.9%0.016%
4/29/2024 Schaper Benz & Wise Investment Counsel Inc. WI362,536$10.19M0.9%-1.1%0.069%
4/29/2024 Mn Services Vermogensbeheer B.V.120,188$3.38M0.0%-12.7%0.023%
4/26/2024 Yousif Capital Management LLC294,930$8.29M0.1%+1.5%0.056%
4/26/2024 SlateStone Wealth LLC27,527$774K0.1%N/A0.005%
4/25/2024 New York State Teachers Retirement System323,246$9.09M0.0%+0.9%0.061%
4/25/2024 Equitable Trust Co.35,722$1.00M0.1%+3.4%0.007%
4/25/2024 Fjarde AP Fonden Fourth Swedish National Pension Fund182,453$5.13M0.1%+13.9%0.035%
4/23/2024 Global Retirement Partners LLC1,862$52K0.0%-38.5%0.000%
RE: Your account status (Ad)

Your $200 MarketBeat account credit expires in less than twelve hours. Upgrade to MarketBeat All Access today and save $200 on your 2024-2025 MarketBeat premium subscription.

Claim My Discount
4/23/2024 Louisiana State Employees Retirement System17,500$492K0.0%+2.9%0.003%
4/23/2024 Amalgamated Bank81,342$2.29M0.0%+10.6%0.015%
4/23/2024 New Mexico Educational Retirement Board14,173$398K0.0%-4.7%0.003%
4/23/2024 Wesbanco Bank Inc.9,032$254K0.0%N/A0.002%
4/23/2024 Revisor Wealth Management LLC20,436$592K0.3%+135.7%0.004%
4/23/2024 Raymond James Financial Services Advisors Inc.423,632$11.91M0.0%-11.1%0.080%
4/22/2024 Centennial Wealth Advisory LLC11,806$332K0.2%-5.0%0.002%
4/22/2024 PFG Investments LLC10,184$286K0.0%N/A0.002%
4/22/2024 IFM Investors Pty Ltd63,879$1.80M0.0%-4.7%0.012%
4/19/2024 Insight Folios Inc40,964$1.15M0.5%-8.5%0.008%
(Data available from 1/1/2016 forward)

BEN Institutional Ownership - Frequently Asked Questions

Who are the largest shareholders of BEN shares?

During the previous two years, 550 institutional investors and hedge funds held shares of Franklin Resources. The most heavily invested institutionals were Vanguard Group Inc. ($1.01B), Power Corp of Canada ($887.07M), State Street Corp ($857.58M), BlackRock Inc. ($777.65M), Capital Research Global Investors ($675.41M), ProShare Advisors LLC ($180.43M), and Clarkston Capital Partners LLC ($170.98M).Learn more on BEN's institutional investors.

What percentage of Franklin Resources stock is owned by institutional investors?

47.56% of Franklin Resources stock is owned by institutional investors. Learn more on BEN's institutional investor holdings.

Which institutional investors have been buying Franklin Resources stock?

Of the 473 institutional investors that purchased Franklin Resources stock in the last 24 months, the following investors and hedge funds have bought the highest volume of shares: Power Corp of Canada ($31.56M), State Street Corp ($8.18M), Capital Research Global Investors ($4.30M), Vanguard Group Inc. ($3.59M), ProShare Advisors LLC ($2.94M), Franklin Resources Inc. ($1.84M), and Barclays PLC ($1.73M).

How much institutional buying is happening at Franklin Resources?

Institutional investors have bought a total of 87,259,067 shares in the last 24 months. This purchase volume represents approximately $2.33B in transactions.

Which Franklin Resources major shareholders have been selling company stock?

Of the 306 institutional investors that sold Franklin Resources stock in the last 24 months, the following investors and hedge funds have sold the highest volume of shares: Bank of America Corp DE ($4.59M), Charles Schwab Investment Management Inc. ($4.46M), ProShare Advisors LLC ($3.56M), Capital Research Global Investors ($2.63M), Vanguard Group Inc. ($2.49M), Franklin Resources Inc. ($1.76M), and HighTower Advisors LLC ($1.42M).

How much institutional selling is happening at Franklin Resources?

Institutional investors have sold a total of 42,182,714 shares in the last 24 months. This volume of shares sold represents approximately $1.12B in transactions.


This page (NYSE:BEN) was last updated on 5/28/2024 by MarketBeat.com Staff

From Our Partners